createdAt,value
2022-10-17T00:00:27.359Z,94.22
2022-10-17T00:02:30.788Z,94.13
2022-10-17T00:06:45.091Z,94.58
2022-10-17T00:08:48.515Z,94.08
2022-10-17T00:10:59.075Z,93.67
2022-10-17T00:13:02.114Z,93.37
2022-10-17T00:15:08.490Z,93.11
2022-10-17T00:17:11.560Z,93.00
2022-10-17T00:19:14.703Z,93.01
2022-10-17T00:21:18.180Z,92.85
2022-10-17T00:23:21.309Z,92.86
2022-10-17T00:25:24.488Z,92.99
2022-10-17T00:27:27.744Z,92.67
2022-10-17T00:29:31.115Z,92.97
2022-10-17T00:31:35.840Z,93.31
2022-10-17T00:33:39.235Z,92.85
2022-10-17T00:35:42.299Z,92.98
2022-10-17T00:37:46.580Z,93.15
2022-10-17T00:39:49.603Z,93.45
2022-10-17T00:41:53.678Z,93.30
2022-10-17T00:43:58.098Z,93.48
2022-10-17T00:46:01.106Z,93.17
2022-10-17T00:48:08.424Z,92.95
2022-10-17T00:50:12.709Z,92.83
2022-10-17T00:52:17.794Z,93.01
2022-10-17T00:54:24.170Z,92.67
2022-10-17T00:56:28.789Z,92.75
2022-10-17T00:58:32.188Z,92.64
2022-10-17T01:00:36.896Z,92.75
2022-10-17T01:02:43.374Z,92.49
2022-10-17T01:04:49.039Z,92.12
2022-10-17T01:06:52.070Z,91.98
2022-10-17T01:09:12.514Z,91.50
2022-10-17T01:11:44.716Z,91.68
2022-10-17T01:14:47.024Z,91.96
2022-10-17T01:16:53.483Z,91.92
2022-10-17T01:19:02.089Z,92.15
2022-10-17T01:21:47.797Z,92.38
2022-10-17T01:24:40.569Z,92.83
2022-10-17T01:26:56.200Z,92.63
2022-10-17T01:29:07.699Z,92.64
2022-10-17T01:31:23.744Z,92.35
2022-10-17T01:33:32.307Z,92.65
2022-10-17T01:35:38.850Z,92.75
2022-10-17T01:37:45.977Z,92.50
2022-10-17T01:39:51.872Z,92.46
2022-10-17T01:41:59.805Z,92.37
2022-10-17T01:44:06.512Z,92.61
2022-10-17T01:46:14.597Z,92.54
2022-10-17T01:48:21.653Z,91.85
2022-10-17T01:50:27.488Z,91.95
2022-10-17T01:52:33.582Z,92.28
2022-10-17T01:54:40.950Z,92.13
2022-10-17T01:56:45.577Z,92.58
2022-10-17T01:58:51.823Z,92.01
2022-10-17T02:00:56.708Z,91.68
2022-10-17T02:03:01.383Z,91.53
2022-10-17T02:05:06.541Z,91.63
2022-10-17T02:07:10.399Z,91.86
2022-10-17T02:09:21.044Z,91.49
2022-10-17T02:11:25.866Z,91.81
2022-10-17T02:13:36.018Z,91.70
2022-10-17T02:16:00.403Z,91.84
2022-10-17T02:18:10.300Z,92.21
2022-10-17T02:20:19.827Z,92.17
2022-10-17T02:22:32.146Z,92.02
2022-10-17T02:24:42.181Z,92.27
2022-10-17T02:26:47.191Z,91.88
2022-10-17T02:28:56.968Z,92.08
2022-10-17T02:31:03.432Z,92.27
2022-10-17T02:33:08.180Z,91.93
2022-10-17T02:35:14.661Z,92.22
2022-10-17T02:37:20.952Z,92.18
2022-10-17T02:39:26.336Z,91.87
2022-10-17T02:41:31.251Z,92.08
2022-10-17T02:43:35.287Z,92.41
2022-10-17T02:45:38.793Z,92.25
2022-10-17T02:47:47.175Z,92.41
2022-10-17T02:49:52.341Z,91.90
2022-10-17T02:52:01.072Z,91.85
2022-10-17T02:54:10.714Z,91.68
2022-10-17T02:56:18.304Z,91.59
2022-10-17T02:58:26.468Z,91.39
2022-10-17T03:00:29.865Z,91.45
2022-10-17T03:02:39.200Z,91.60
2022-10-17T03:04:44.290Z,91.42
2022-10-17T03:06:48.653Z,91.26
2022-10-17T03:08:51.660Z,91.21
2022-10-17T03:10:56.103Z,91.31
2022-10-17T03:12:59.601Z,91.08
2022-10-17T03:15:04.074Z,90.95
2022-10-17T03:17:07.794Z,91.07
2022-10-17T03:19:11.472Z,90.89
2022-10-17T03:21:14.596Z,90.78
2022-10-17T03:23:18.263Z,90.45
2022-10-17T03:25:22.422Z,90.44
2022-10-17T03:27:27.485Z,90.41
2022-10-17T03:29:31.145Z,90.44
2022-10-17T03:31:34.594Z,90.60
2022-10-17T03:33:38.626Z,90.55
2022-10-17T03:35:42.221Z,90.60
2022-10-17T03:37:46.204Z,90.53
2022-10-17T03:39:49.378Z,90.25
2022-10-17T03:41:52.463Z,90.17
2022-10-17T03:43:57.264Z,90.07
2022-10-17T03:46:01.527Z,90.24
2022-10-17T03:48:06.037Z,90.01
2022-10-17T03:50:09.515Z,89.89
2022-10-17T03:52:14.748Z,89.99
2022-10-17T03:54:18.251Z,89.90
2022-10-17T03:56:22.507Z,90.06
2022-10-17T03:58:33.924Z,89.71
2022-10-17T04:00:38.876Z,89.82
2022-10-17T04:02:42.252Z,89.94
2022-10-17T04:04:50.919Z,89.92
2022-10-17T04:06:54.681Z,89.53
2022-10-17T04:08:57.952Z,89.79
2022-10-17T04:11:06.962Z,89.52
2022-10-17T04:13:10.257Z,89.55
2022-10-17T04:15:13.456Z,89.42
2022-10-17T04:17:18.164Z,89.42
2022-10-17T04:19:22.182Z,89.20
2022-10-17T04:21:27.655Z,89.34
2022-10-17T04:23:31.687Z,89.32
2022-10-17T04:25:40.881Z,89.13
2022-10-17T04:27:44.136Z,89.23
2022-10-17T04:29:47.494Z,89.18
2022-10-17T04:31:55.898Z,89.21
2022-10-17T04:34:10.310Z,89.30
2022-10-17T04:36:14.674Z,89.10
2022-10-17T04:38:19.293Z,89.22
2022-10-17T04:40:25.307Z,89.11
2022-10-17T04:42:30.516Z,88.93
2022-10-17T04:44:35.558Z,88.73
2022-10-17T04:46:39.265Z,88.89
2022-10-17T04:48:43.093Z,88.94
2022-10-17T04:50:55.640Z,88.92
2022-10-17T04:53:09.066Z,88.85
2022-10-17T04:55:12.321Z,88.78
2022-10-17T04:57:17.109Z,88.72
2022-10-17T04:59:29.821Z,88.80
2022-10-17T05:01:47.208Z,88.76
2022-10-17T05:03:50.549Z,88.70
2022-10-17T05:05:54.997Z,88.64
2022-10-17T05:07:59.276Z,88.63
2022-10-17T05:10:06.948Z,88.71
2022-10-17T05:12:10.487Z,88.73
2022-10-17T05:14:16.807Z,88.65
2022-10-17T05:16:23.574Z,88.73
2022-10-17T05:18:26.699Z,88.88
2022-10-17T05:20:30.210Z,88.89
2022-10-17T05:22:38.248Z,89.05
2022-10-17T05:24:44.497Z,88.81
2022-10-17T05:26:48.024Z,88.76
2022-10-17T05:28:53.141Z,88.93
2022-10-17T05:30:58.577Z,88.80
2022-10-17T05:33:01.595Z,88.81
2022-10-17T05:35:05.531Z,88.48
2022-10-17T05:37:09.630Z,88.66
2022-10-17T05:39:19.455Z,88.69
2022-10-17T05:41:23.880Z,88.57
2022-10-17T05:43:27.867Z,88.67
2022-10-17T05:45:31.078Z,88.32
2022-10-17T05:47:34.237Z,88.23
2022-10-17T05:49:47.353Z,88.35
2022-10-17T05:51:53.840Z,88.55
2022-10-17T05:53:57.231Z,88.40
2022-10-17T05:56:06.925Z,88.10
2022-10-17T05:58:17.784Z,88.17
2022-10-17T06:00:30.168Z,88.46
2022-10-17T06:02:34.931Z,88.05
2022-10-17T06:04:38.065Z,88.05
2022-10-17T06:06:41.259Z,88.33
2022-10-17T06:08:46.110Z,88.22
2022-10-17T06:10:53.158Z,88.31
2022-10-17T06:12:57.852Z,88.46
2022-10-17T06:15:02.270Z,88.20
2022-10-17T06:17:05.972Z,87.95
2022-10-17T06:19:09.138Z,87.85
2022-10-17T06:21:12.916Z,87.93
2022-10-17T06:23:20.875Z,88.06
2022-10-17T06:25:32.077Z,88.17
2022-10-17T06:27:35.410Z,87.94
2022-10-17T06:29:39.908Z,87.90
2022-10-17T06:31:44.118Z,87.67
2022-10-17T06:33:47.225Z,87.37
2022-10-17T06:35:53.171Z,87.21
2022-10-17T06:37:57.955Z,87.17
2022-10-17T06:40:02.564Z,86.86
2022-10-17T06:42:07.812Z,86.86
2022-10-17T06:44:41.208Z,86.90
2022-10-17T06:46:58.162Z,86.89
2022-10-17T06:49:02.637Z,86.89
2022-10-17T06:51:13.392Z,87.08
2022-10-17T06:53:25.008Z,86.89
2022-10-17T06:55:27.972Z,86.65
2022-10-17T06:58:03.443Z,86.73
2022-10-17T07:00:40.642Z,86.68
2022-10-17T07:02:44.107Z,86.59
2022-10-17T07:04:48.015Z,86.54
2022-10-17T07:06:51.333Z,86.50
2022-10-17T07:08:58.346Z,86.51
2022-10-17T07:11:09.382Z,86.20
2022-10-17T07:13:12.452Z,86.15
2022-10-17T07:15:15.685Z,85.82
2022-10-17T07:17:20.237Z,85.67
2022-10-17T07:19:23.653Z,85.46
2022-10-17T07:21:27.184Z,85.32
2022-10-17T07:23:30.659Z,85.20
2022-10-17T07:25:36.405Z,84.91
2022-10-17T07:27:44.430Z,84.71
2022-10-17T07:29:47.505Z,84.74
2022-10-17T07:31:55.636Z,84.50
2022-10-17T07:34:01.855Z,84.85
2022-10-17T07:36:06.204Z,84.29
2022-10-17T07:38:09.344Z,84.34
2022-10-17T07:40:12.551Z,84.10
2022-10-17T07:42:15.611Z,83.78
2022-10-17T07:44:18.774Z,83.82
2022-10-17T07:46:25.487Z,83.94
2022-10-17T07:48:28.917Z,83.71
2022-10-17T07:50:34.042Z,83.70
2022-10-17T07:52:37.089Z,83.40
2022-10-17T07:54:40.159Z,82.98
2022-10-17T07:56:43.280Z,82.84
2022-10-17T07:58:48.194Z,82.04
2022-10-17T08:00:51.571Z,81.96
2022-10-17T08:02:54.660Z,81.92
2022-10-17T08:04:57.699Z,81.82
2022-10-17T08:07:18.409Z,81.70
2022-10-17T08:09:22.956Z,80.96
2022-10-17T08:11:26.277Z,80.48
2022-10-17T08:13:29.274Z,80.10
2022-10-17T08:15:32.455Z,80.26
2022-10-17T08:17:36.082Z,80.09
2022-10-17T08:19:39.524Z,79.44
2022-10-17T08:21:44.835Z,79.60
2022-10-17T08:23:49.357Z,79.50
2022-10-17T08:25:52.654Z,79.46
2022-10-17T08:27:55.790Z,78.79
2022-10-17T08:29:58.859Z,78.67
2022-10-17T08:32:03.690Z,77.92
2022-10-17T08:34:07.665Z,78.19
2022-10-17T08:36:11.101Z,77.88
2022-10-17T08:38:15.293Z,77.66
2022-10-17T08:40:22.799Z,77.71
2022-10-17T08:42:34.674Z,77.47
2022-10-17T08:44:43.642Z,76.98
2022-10-17T08:46:49.118Z,76.96
2022-10-17T08:48:52.798Z,77.00
2022-10-17T08:50:58.388Z,76.83
2022-10-17T08:53:04.163Z,76.94
2022-10-17T08:55:14.504Z,77.02
2022-10-17T08:57:19.019Z,77.21
2022-10-17T08:59:27.195Z,77.50
2022-10-17T09:01:33.577Z,77.40
2022-10-17T09:03:43.735Z,77.36
2022-10-17T09:05:51.272Z,77.49
2022-10-17T09:07:58.123Z,77.46
2022-10-17T09:10:03.784Z,77.29
2022-10-17T09:12:15.266Z,77.23
2022-10-17T09:14:30.368Z,76.98
2022-10-17T09:16:40.303Z,76.84
2022-10-17T09:18:46.727Z,76.81
2022-10-17T09:20:52.274Z,76.94
2022-10-17T09:22:58.049Z,76.97
2022-10-17T09:25:03.820Z,76.94
2022-10-17T09:27:07.404Z,76.94
2022-10-17T09:29:16.261Z,77.08
2022-10-17T09:31:22.949Z,76.46
2022-10-17T09:33:42.173Z,76.27
2022-10-17T09:35:52.224Z,76.35
2022-10-17T09:37:55.880Z,76.59
2022-10-17T09:39:59.220Z,76.73
2022-10-17T09:42:03.117Z,76.66
2022-10-17T09:44:15.141Z,76.54
2022-10-17T09:46:21.580Z,77.13
2022-10-17T09:48:29.359Z,76.79
2022-10-17T09:50:33.369Z,76.61
2022-10-17T09:52:40.400Z,76.66
2022-10-17T09:54:45.726Z,76.12
2022-10-17T09:56:59.701Z,75.56
2022-10-17T09:59:02.854Z,75.77
2022-10-17T10:01:21.010Z,75.95
2022-10-17T10:03:28.315Z,75.46
2022-10-17T10:05:31.331Z,75.93
2022-10-17T10:07:35.244Z,75.40
2022-10-17T10:09:39.653Z,75.25
2022-10-17T10:11:47.592Z,75.43
2022-10-17T10:13:51.431Z,75.95
2022-10-17T10:15:54.738Z,76.27
2022-10-17T10:17:57.831Z,76.13
2022-10-17T10:20:02.613Z,75.83
2022-10-17T10:22:06.796Z,75.38
2022-10-17T10:24:14.019Z,75.67
2022-10-17T10:26:22.262Z,76.14
2022-10-17T10:28:29.703Z,75.93
2022-10-17T10:30:36.159Z,75.56
2022-10-17T10:32:46.444Z,75.36
2022-10-17T10:34:50.977Z,75.39
2022-10-17T10:37:00.480Z,75.30
2022-10-17T10:39:04.798Z,75.18
2022-10-17T10:41:09.062Z,75.41
2022-10-17T10:43:23.730Z,75.12
2022-10-17T10:45:47.956Z,75.49
2022-10-17T10:47:52.475Z,74.99
2022-10-17T10:50:07.708Z,74.97
2022-10-17T10:52:16.293Z,75.18
2022-10-17T10:54:23.129Z,75.15
2022-10-17T10:56:29.297Z,74.23
2022-10-17T10:58:41.770Z,74.34
2022-10-17T11:00:46.279Z,74.66
2022-10-17T11:02:54.811Z,75.04
2022-10-17T11:05:00.916Z,74.60
2022-10-17T11:07:05.624Z,74.98
2022-10-17T11:09:18.436Z,74.88
2022-10-17T11:11:27.453Z,74.76
2022-10-17T11:13:37.196Z,74.86
2022-10-17T11:15:43.415Z,75.24
2022-10-17T11:17:50.612Z,75.19
2022-10-17T11:19:59.713Z,75.19
2022-10-17T11:22:06.422Z,75.00
2022-10-17T11:24:15.335Z,74.91
2022-10-17T11:26:26.714Z,74.51
2022-10-17T11:28:30.674Z,74.46
2022-10-17T11:32:50.714Z,74.12
2022-10-17T11:34:57.137Z,74.15
2022-10-17T11:37:05.052Z,74.08
2022-10-17T11:39:12.146Z,74.23
2022-10-17T11:41:18.211Z,74.39
2022-10-17T11:43:29.091Z,74.55
2022-10-17T11:45:34.832Z,74.44
2022-10-17T11:47:40.402Z,74.70
2022-10-17T11:49:50.865Z,74.59
2022-10-17T11:52:00.404Z,74.63
2022-10-17T11:54:08.220Z,74.73
2022-10-17T11:56:12.538Z,74.90
2022-10-17T11:58:24.278Z,75.21
2022-10-17T12:00:39.266Z,75.24
2022-10-17T12:02:49.309Z,75.55
2022-10-17T12:04:56.215Z,75.29
2022-10-17T12:07:05.342Z,74.99
2022-10-17T12:09:12.268Z,75.28
2022-10-17T12:11:20.925Z,75.83
2022-10-17T12:13:44.566Z,75.74
2022-10-17T12:15:48.949Z,75.65
2022-10-17T12:17:55.973Z,75.62
2022-10-17T12:20:17.549Z,75.74
2022-10-17T12:22:26.021Z,75.80
2022-10-17T12:24:34.098Z,75.90
2022-10-17T12:26:37.157Z,75.69
2022-10-17T12:28:43.475Z,75.85
2022-10-17T12:30:55.202Z,75.96
2022-10-17T12:33:17.563Z,75.74
2022-10-17T12:35:21.963Z,75.85
2022-10-17T12:37:43.549Z,76.08
2022-10-17T12:39:46.590Z,75.71
2022-10-17T12:41:55.519Z,75.74
2022-10-17T12:43:58.740Z,75.59
2022-10-17T12:46:03.889Z,75.86
2022-10-17T12:48:10.083Z,75.62
2022-10-17T12:50:40.048Z,75.92
2022-10-17T12:53:04.458Z,75.99
2022-10-17T12:55:12.575Z,75.90
2022-10-17T12:57:20.050Z,75.81
2022-10-17T12:59:24.989Z,75.69
2022-10-17T13:01:30.640Z,75.51
2022-10-17T13:03:34.555Z,75.32
2022-10-17T13:05:39.324Z,75.62
2022-10-17T13:07:43.777Z,75.45
2022-10-17T13:09:47.190Z,75.63
2022-10-17T13:11:50.456Z,75.15
2022-10-17T13:13:54.781Z,75.23
2022-10-17T13:15:57.825Z,75.75
2022-10-17T13:18:02.633Z,75.47
2022-10-17T13:20:28.851Z,75.87
2022-10-17T13:22:34.489Z,75.51
2022-10-17T13:24:39.459Z,75.31
2022-10-17T13:26:46.273Z,75.05
2022-10-17T13:29:02.045Z,75.22
2022-10-17T13:31:05.306Z,75.25
2022-10-17T13:33:28.789Z,74.77
2022-10-17T13:35:59.340Z,75.47
2022-10-17T13:38:00.271Z,75.24
2022-10-17T13:40:17.537Z,75.00
2022-10-17T13:42:28.483Z,74.44
2022-10-17T13:44:34.661Z,74.57
2022-10-17T13:46:40.175Z,74.73
2022-10-17T13:48:44.662Z,74.49
2022-10-17T13:50:48.813Z,74.18
2022-10-17T13:53:06.576Z,73.92
2022-10-17T13:55:14.284Z,73.68
2022-10-17T13:57:21.656Z,73.99
2022-10-17T13:59:26.247Z,73.48
2022-10-17T14:01:30.113Z,73.19
2022-10-17T14:03:47.525Z,73.14
2022-10-17T14:06:12.294Z,73.12
2022-10-17T14:08:22.064Z,72.76
2022-10-17T14:10:27.655Z,72.78
2022-10-17T14:12:30.846Z,72.48
2022-10-17T14:14:46.432Z,72.92
2022-10-17T14:16:58.018Z,72.35
2022-10-17T14:19:01.193Z,71.82
2022-10-17T14:21:34.382Z,72.27
2022-10-17T14:23:33.809Z,72.38
2022-10-17T14:25:37.838Z,72.25
2022-10-17T14:27:55.351Z,72.23
2022-10-17T14:30:00.733Z,72.17
2022-10-17T14:32:06.072Z,72.44
2022-10-17T14:34:21.110Z,72.49
2022-10-17T14:36:35.389Z,72.46
2022-10-17T14:38:39.982Z,72.34
2022-10-17T14:40:50.112Z,72.65
2022-10-17T14:42:54.625Z,72.50
2022-10-17T14:45:04.647Z,72.58
2022-10-17T14:47:38.063Z,72.53
2022-10-17T14:49:36.245Z,72.71
2022-10-17T14:51:50.418Z,72.32
2022-10-17T14:54:05.766Z,72.71
2022-10-17T14:56:22.621Z,72.72
2022-10-17T14:58:27.647Z,72.71
2022-10-17T15:00:30.661Z,72.78
2022-10-17T15:02:33.825Z,72.88
2022-10-17T15:04:37.027Z,72.99
2022-10-17T15:06:40.576Z,73.04
2022-10-17T15:10:53.407Z,72.71
2022-10-17T15:12:58.851Z,72.52
2022-10-17T15:15:07.913Z,72.67
2022-10-17T15:17:15.190Z,72.80
2022-10-17T15:19:18.238Z,72.95
2022-10-17T15:21:41.891Z,72.77
2022-10-17T15:23:45.436Z,72.76
2022-10-17T15:25:48.496Z,73.05
2022-10-17T15:27:53.368Z,73.25
2022-10-17T15:29:56.407Z,72.99
2022-10-17T15:31:59.406Z,73.02
2022-10-17T15:34:02.405Z,73.36
2022-10-17T15:36:05.732Z,73.53
2022-10-17T15:38:09.709Z,73.34
2022-10-17T15:40:14.926Z,73.64
2022-10-17T15:42:17.984Z,73.74
2022-10-17T15:44:22.531Z,73.45
2022-10-17T15:46:26.972Z,74.00
2022-10-17T15:48:32.377Z,74.22
2022-10-17T15:50:35.526Z,74.42
2022-10-17T15:52:38.666Z,74.51
2022-10-17T15:54:41.860Z,74.76
2022-10-17T15:56:48.264Z,74.95
2022-10-17T15:58:51.836Z,75.26
2022-10-17T16:00:56.427Z,75.07
2022-10-17T16:03:00.435Z,75.62
2022-10-17T16:05:03.449Z,75.87
2022-10-17T16:07:07.217Z,75.70
2022-10-17T16:09:10.226Z,76.31
2022-10-17T16:11:15.610Z,76.38
2022-10-17T16:13:19.569Z,76.66
2022-10-17T16:15:23.524Z,77.02
2022-10-17T16:17:28.017Z,78.07
2022-10-17T16:19:31.223Z,79.46
2022-10-17T16:21:35.588Z,80.26
2022-10-17T16:23:38.625Z,82.01
2022-10-17T16:25:42.077Z,83.14
2022-10-17T16:27:45.233Z,83.84
2022-10-17T16:29:48.552Z,84.33
2022-10-17T16:31:51.625Z,84.75
2022-10-17T16:33:56.766Z,84.88
2022-10-17T16:35:59.814Z,85.50
2022-10-17T16:38:03.065Z,85.99
2022-10-17T16:40:06.695Z,86.29
2022-10-17T16:42:09.759Z,87.07
2022-10-17T16:44:16.357Z,87.31
2022-10-17T16:46:20.073Z,88.51
2022-10-17T16:48:28.711Z,88.83
2022-10-17T16:50:35.641Z,88.66
2022-10-17T16:52:41.186Z,89.26
2022-10-17T16:54:44.449Z,89.22
2022-10-17T16:56:47.662Z,89.86
2022-10-17T16:58:51.515Z,90.27
2022-10-17T17:00:54.722Z,90.63
2022-10-17T17:02:57.867Z,91.30
2022-10-17T17:05:00.913Z,90.98
2022-10-17T17:07:05.340Z,91.33
2022-10-17T17:09:09.265Z,91.47
2022-10-17T17:11:13.758Z,91.29
2022-10-17T17:13:16.926Z,91.25
2022-10-17T17:15:19.905Z,90.98
2022-10-17T17:17:44.579Z,91.70
2022-10-17T17:19:46.828Z,91.69
2022-10-17T17:21:51.107Z,91.87
2022-10-17T17:23:57.212Z,91.64
2022-10-17T17:26:00.797Z,91.46
2022-10-17T17:28:04.294Z,91.38
2022-10-17T17:30:07.866Z,90.89
2022-10-17T17:32:10.953Z,90.46
2022-10-17T17:34:17.170Z,91.18
2022-10-17T17:36:22.380Z,91.13
2022-10-17T17:38:25.799Z,91.62
2022-10-17T17:40:30.161Z,91.87
2022-10-17T17:42:33.176Z,91.88
2022-10-17T17:44:36.200Z,91.21
2022-10-17T17:46:39.413Z,91.69
2022-10-17T17:48:43.227Z,91.63
2022-10-17T17:50:46.475Z,91.88
2022-10-17T17:52:51.069Z,91.35
2022-10-17T17:54:54.163Z,91.61
2022-10-17T17:56:58.515Z,91.23
2022-10-17T17:59:03.115Z,91.03
2022-10-17T18:01:12.217Z,91.13
2022-10-17T18:03:17.387Z,90.91
2022-10-17T18:05:20.788Z,90.81
2022-10-17T18:07:23.839Z,90.93
2022-10-17T18:09:26.825Z,90.71
2022-10-17T18:11:29.976Z,90.71
2022-10-17T18:13:34.370Z,90.84
2022-10-17T18:15:38.421Z,90.88
2022-10-17T18:17:41.751Z,91.50
2022-10-17T18:19:44.791Z,91.50
2022-10-17T18:21:48.774Z,92.08
2022-10-17T18:23:52.714Z,91.75
2022-10-17T18:25:56.008Z,91.77
2022-10-17T18:27:59.029Z,91.29
2022-10-17T18:30:03.451Z,91.55
2022-10-17T18:32:06.736Z,91.74
2022-10-17T18:34:10.881Z,91.58
2022-10-17T18:36:15.134Z,91.66
2022-10-17T18:38:18.130Z,91.68
2022-10-17T18:40:21.145Z,91.63
2022-10-17T18:42:24.330Z,91.77
2022-10-17T18:44:27.506Z,91.81
2022-10-17T18:46:35.523Z,91.51
2022-10-17T18:48:39.850Z,91.45
2022-10-17T18:50:42.829Z,91.30
2022-10-17T18:52:46.050Z,91.43
2022-10-17T18:54:49.155Z,91.25
2022-10-17T18:56:53.489Z,90.96
2022-10-17T18:58:57.011Z,90.34
2022-10-17T19:01:02.794Z,90.88
2022-10-17T19:03:08.787Z,90.67
2022-10-17T19:05:14.337Z,90.56
2022-10-17T19:07:20.028Z,90.60
2022-10-17T19:09:23.077Z,90.29
2022-10-17T19:11:26.869Z,90.08
2022-10-17T19:13:29.905Z,90.09
2022-10-17T19:15:32.949Z,89.76
2022-10-17T19:17:35.990Z,89.79
2022-10-17T19:19:40.436Z,89.03
2022-10-17T19:21:43.521Z,88.74
2022-10-17T19:23:50.396Z,88.31
2022-10-17T19:25:54.960Z,88.43
2022-10-17T19:28:00.059Z,88.32
2022-10-17T19:30:03.100Z,88.33
2022-10-17T19:32:12.108Z,88.81
2022-10-17T19:34:19.096Z,88.47
2022-10-17T19:36:26.376Z,88.75
2022-10-17T19:38:32.330Z,88.40
2022-10-17T19:40:35.513Z,88.52
2022-10-17T19:42:38.648Z,88.62
2022-10-17T19:44:41.767Z,88.61
2022-10-17T19:46:46.928Z,88.77
2022-10-17T19:48:50.647Z,88.71
2022-10-17T19:50:54.104Z,88.40
2022-10-17T19:52:59.212Z,88.45
2022-10-17T19:55:02.466Z,88.47
2022-10-17T19:57:10.389Z,88.15
2022-10-17T19:59:14.627Z,87.92
2022-10-17T20:01:20.058Z,87.75
2022-10-17T20:03:24.272Z,87.27
2022-10-17T20:05:28.243Z,87.05
2022-10-17T20:07:31.363Z,87.12
2022-10-17T20:09:38.640Z,86.79
2022-10-17T20:11:41.765Z,87.25
2022-10-17T20:13:45.755Z,87.25
2022-10-17T20:15:55.171Z,87.24
2022-10-17T20:17:58.809Z,86.97
2022-10-17T20:20:07.674Z,87.36
2022-10-17T20:22:11.971Z,87.48
2022-10-17T20:24:15.941Z,87.50
2022-10-17T20:26:38.695Z,87.36
2022-10-17T20:28:42.410Z,88.43
2022-10-17T20:30:46.410Z,88.63
2022-10-17T20:32:54.760Z,89.35
2022-10-17T20:34:58.026Z,89.54
2022-10-17T20:37:01.846Z,90.15
2022-10-17T20:39:05.783Z,90.64
2022-10-17T20:41:09.876Z,90.48
2022-10-17T20:43:14.594Z,91.01
2022-10-17T20:45:17.845Z,91.05
2022-10-17T20:47:40.028Z,91.02
2022-10-17T20:49:44.319Z,90.79
2022-10-17T20:51:47.352Z,90.83
2022-10-17T20:53:50.397Z,91.01
2022-10-17T20:56:01.825Z,91.14
2022-10-17T20:58:05.097Z,91.10
2022-10-17T21:00:10.426Z,90.94
2022-10-17T21:02:14.826Z,91.05
2022-10-17T21:06:40.825Z,91.18
2022-10-17T21:08:44.232Z,90.65
2022-10-17T21:10:47.267Z,90.95
2022-10-17T21:12:54.226Z,91.05
2022-10-17T21:14:57.566Z,92.18
2022-10-17T21:17:05.018Z,91.71
2022-10-17T21:19:08.552Z,92.74
2022-10-17T21:21:12.789Z,92.91
2022-10-17T21:23:15.879Z,93.78
2022-10-17T21:25:18.932Z,93.69
2022-10-17T21:27:21.947Z,93.15
2022-10-17T21:29:24.998Z,92.99
2022-10-17T21:31:28.592Z,93.17
2022-10-17T21:33:33.135Z,93.04
2022-10-17T21:35:36.195Z,93.58
2022-10-17T21:37:39.368Z,93.58
2022-10-17T21:39:42.398Z,93.73
2022-10-17T21:41:45.653Z,94.08
2022-10-17T21:43:49.223Z,94.08
2022-10-17T21:45:52.245Z,94.25
2022-10-17T21:48:12.297Z,93.94
2022-10-17T21:50:17.418Z,94.40
2022-10-17T21:52:20.399Z,94.07
2022-10-17T21:54:24.061Z,93.33
2022-10-17T21:56:28.661Z,93.33
2022-10-17T21:58:31.801Z,93.06
2022-10-17T22:00:34.861Z,93.08
2022-10-17T22:02:37.869Z,92.38
2022-10-17T22:04:40.957Z,92.36
2022-10-17T22:06:46.690Z,92.98
2022-10-17T22:08:49.725Z,93.41
2022-10-17T22:10:52.734Z,93.83
2022-10-17T22:12:55.963Z,94.44
2022-10-17T22:14:59.018Z,94.74
2022-10-17T22:17:02.478Z,94.68
2022-10-17T22:19:06.760Z,94.57
2022-10-17T22:21:13.111Z,94.30
2022-10-17T22:23:17.725Z,93.71
2022-10-17T22:25:20.883Z,93.57
2022-10-17T22:27:23.899Z,93.17
2022-10-17T22:29:26.952Z,93.03
2022-10-17T22:31:29.961Z,93.21
2022-10-17T22:33:33.299Z,93.38
2022-10-17T22:35:36.311Z,93.21
2022-10-17T22:37:39.451Z,92.63
2022-10-17T22:39:43.821Z,92.63
2022-10-17T22:41:46.843Z,93.28
2022-10-17T22:43:49.891Z,93.88
2022-10-17T22:45:53.222Z,94.25
2022-10-17T22:47:56.824Z,94.75
2022-10-17T22:49:59.909Z,95.03
2022-10-17T22:52:02.938Z,95.35
2022-10-17T22:54:05.955Z,95.73
2022-10-17T22:56:14.773Z,95.66
2022-10-17T22:58:17.743Z,95.68
2022-10-17T23:00:20.853Z,96.07
2022-10-17T23:02:24.077Z,96.57
2022-10-17T23:04:27.324Z,96.22
2022-10-17T23:06:30.583Z,96.30
2022-10-17T23:08:33.633Z,96.01
2022-10-17T23:10:36.699Z,95.83
2022-10-17T23:12:41.228Z,96.02
2022-10-17T23:14:44.373Z,96.42
2022-10-17T23:16:47.355Z,96.55
2022-10-17T23:18:50.449Z,97.05
2022-10-17T23:20:53.628Z,97.51
2022-10-17T23:22:56.639Z,97.62
2022-10-17T23:24:59.711Z,97.83
2022-10-17T23:27:03.001Z,97.81
2022-10-17T23:29:07.462Z,97.94
2022-10-17T23:31:11.922Z,97.92
2022-10-17T23:33:15.296Z,97.73
2022-10-17T23:35:18.484Z,97.46
2022-10-17T23:37:21.574Z,97.59
2022-10-17T23:39:24.675Z,97.63
2022-10-17T23:41:27.753Z,97.09
2022-10-17T23:43:31.655Z,97.00
2022-10-17T23:45:37.141Z,96.84
2022-10-17T23:47:40.463Z,96.35
2022-10-17T23:49:43.490Z,96.18
2022-10-17T23:51:46.501Z,95.94
2022-10-17T23:53:49.540Z,95.92
2022-10-17T23:55:52.897Z,95.80
2022-10-17T23:57:55.929Z,95.31
2022-10-17T23:59:59.127Z,95.32
